Liberty Mills, Indiana
Current Conditions -  °F | °C
As of 12:15 PM on Thursday 18 Dec 2014 (Local Time) from KASW Reporting Station
Haze Haze  
Wind Chill: 18°   Ceiling: 1100
Heat Index: 27°   Visibility: 4mi
Dew Point: 23°   Wind: 8mph
Humidity: 86%   Direction: 240°WSW
Pressure: 30.26"   Gusts: NA
Location:  41.03°N, 85.74°W
Report Text: KASW 181715Z AUTO 24007KT 4SM BR BKN011 OVC020 M03/M05 A3026 RMK AO2
Loading
Personal Weather Stations






























Interactive Weather Map New forecast layout! Learn more

10-Day Weather Forecast

Advertisements
Track Severe Weather on mobile